sensor_id;sensor_type;location;lat;lon;timestamp;P1;durP1;ratioP1;P2;durP2;ratioP2
14847;SDS011;7516;43.570;1.448;2023-07-31T00:00:56;7.05;;;3.00;;
14847;SDS011;7516;43.570;1.448;2023-07-31T00:03:25;6.75;;;3.13;;
14847;SDS011;7516;43.570;1.448;2023-07-31T00:05:53;7.53;;;3.53;;
14847;SDS011;7516;43.570;1.448;2023-07-31T00:08:20;7.63;;;3.20;;
14847;SDS011;7516;43.570;1.448;2023-07-31T00:10:50;4.13;;;3.15;;
14847;SDS011;7516;43.570;1.448;2023-07-31T00:13:18;4.88;;;3.40;;
14847;SDS011;7516;43.570;1.448;2023-07-31T00:15:46;4.97;;;3.13;;
14847;SDS011;7516;43.570;1.448;2023-07-31T00:18:13;5.60;;;3.15;;
14847;SDS011;7516;43.570;1.448;2023-07-31T00:20:42;6.30;;;3.70;;
14847;SDS011;7516;43.570;1.448;2023-07-31T00:23:10;5.03;;;3.20;;
14847;SDS011;7516;43.570;1.448;2023-07-31T00:25:39;5.43;;;3.03;;
14847;SDS011;7516;43.570;1.448;2023-07-31T00:28:06;4.78;;;3.10;;
14847;SDS011;7516;43.570;1.448;2023-07-31T00:30:33;3.78;;;3.13;;
14847;SDS011;7516;43.570;1.448;2023-07-31T00:33:01;5.10;;;3.53;;
14847;SDS011;7516;43.570;1.448;2023-07-31T00:35:28;6.82;;;3.65;;
14847;SDS011;7516;43.570;1.448;2023-07-31T00:37:57;5.65;;;2.85;;
14847;SDS011;7516;43.570;1.448;2023-07-31T00:40:25;5.60;;;3.30;;
14847;SDS011;7516;43.570;1.448;2023-07-31T00:42:53;6.10;;;3.28;;
14847;SDS011;7516;43.570;1.448;2023-07-31T00:45:20;5.65;;;3.33;;
14847;SDS011;7516;43.570;1.448;2023-07-31T00:47:51;4.88;;;3.55;;
14847;SDS011;7516;43.570;1.448;2023-07-31T00:50:19;5.55;;;3.47;;
14847;SDS011;7516;43.570;1.448;2023-07-31T00:52:48;4.97;;;3.50;;
14847;SDS011;7516;43.570;1.448;2023-07-31T00:55:17;6.20;;;3.05;;
14847;SDS011;7516;43.570;1.448;2023-07-31T00:57:46;5.55;;;3.42;;
14847;SDS011;7516;43.570;1.448;2023-07-31T01:00:16;4.85;;;3.03;;
14847;SDS011;7516;43.570;1.448;2023-07-31T01:02:43;5.43;;;3.10;;
14847;SDS011;7516;43.570;1.448;2023-07-31T01:05:11;5.43;;;3.22;;
14847;SDS011;7516;43.570;1.448;2023-07-31T01:07:40;6.43;;;3.30;;
14847;SDS011;7516;43.570;1.448;2023-07-31T01:10:18;4.80;;;3.10;;
14847;SDS011;7516;43.570;1.448;2023-07-31T01:12:50;4.43;;;3.35;;
14847;SDS011;7516;43.570;1.448;2023-07-31T01:15:19;5.10;;;3.42;;
14847;SDS011;7516;43.570;1.448;2023-07-31T01:17:48;6.47;;;3.45;;
14847;SDS011;7516;43.570;1.448;2023-07-31T01:20:17;5.53;;;3.55;;
14847;SDS011;7516;43.570;1.448;2023-07-31T01:25:56;7.05;;;3.50;;
14847;SDS011;7516;43.570;1.448;2023-07-31T01:28:30;7.63;;;3.45;;
14847;SDS011;7516;43.570;1.448;2023-07-31T01:31:07;5.72;;;3.38;;
14847;SDS011;7516;43.570;1.448;2023-07-31T01:33:36;6.20;;;3.40;;
14847;SDS011;7516;43.570;1.448;2023-07-31T01:36:04;5.43;;;3.55;;
14847;SDS011;7516;43.570;1.448;2023-07-31T01:38:32;5.57;;;3.65;;
14847;SDS011;7516;43.570;1.448;2023-07-31T01:41:01;5.13;;;3.28;;
14847;SDS011;7516;43.570;1.448;2023-07-31T01:43:28;6.07;;;3.28;;
14847;SDS011;7516;43.570;1.448;2023-07-31T01:45:56;6.88;;;3.67;;
14847;SDS011;7516;43.570;1.448;2023-07-31T01:48:23;6.07;;;3.60;;
14847;SDS011;7516;43.570;1.448;2023-07-31T01:50:51;5.15;;;3.38;;
14847;SDS011;7516;43.570;1.448;2023-07-31T01:53:18;5.28;;;3.58;;
14847;SDS011;7516;43.570;1.448;2023-07-31T01:55:45;5.00;;;3.28;;
14847;SDS011;7516;43.570;1.448;2023-07-31T01:58:14;4.47;;;3.15;;
14847;SDS011;7516;43.570;1.448;2023-07-31T02:00:42;5.47;;;3.60;;
14847;SDS011;7516;43.570;1.448;2023-07-31T02:03:09;4.82;;;3.38;;
14847;SDS011;7516;43.570;1.448;2023-07-31T02:05:37;6.28;;;3.40;;
14847;SDS011;7516;43.570;1.448;2023-07-31T02:08:11;5.95;;;3.45;;
14847;SDS011;7516;43.570;1.448;2023-07-31T02:10:38;5.97;;;3.42;;
14847;SDS011;7516;43.570;1.448;2023-07-31T02:13:06;6.53;;;3.40;;
14847;SDS011;7516;43.570;1.448;2023-07-31T02:15:35;7.38;;;3.45;;
14847;SDS011;7516;43.570;1.448;2023-07-31T02:18:02;5.90;;;3.50;;
14847;SDS011;7516;43.570;1.448;2023-07-31T02:20:32;5.57;;;3.10;;
14847;SDS011;7516;43.570;1.448;2023-07-31T02:23:01;6.80;;;3.58;;
14847;SDS011;7516;43.570;1.448;2023-07-31T02:25:28;6.40;;;3.25;;
14847;SDS011;7516;43.570;1.448;2023-07-31T02:27:56;5.78;;;3.55;;
14847;SDS011;7516;43.570;1.448;2023-07-31T02:30:23;6.15;;;4.10;;
14847;SDS011;7516;43.570;1.448;2023-07-31T02:32:52;5.32;;;3.47;;
14847;SDS011;7516;43.570;1.448;2023-07-31T02:35:20;6.78;;;3.60;;
14847;SDS011;7516;43.570;1.448;2023-07-31T02:37:47;9.70;;;4.22;;
14847;SDS011;7516;43.570;1.448;2023-07-31T02:40:15;11.50;;;5.32;;
14847;SDS011;7516;43.570;1.448;2023-07-31T02:42:42;14.65;;;5.85;;
14847;SDS011;7516;43.570;1.448;2023-07-31T02:45:10;15.32;;;7.22;;
14847;SDS011;7516;43.570;1.448;2023-07-31T02:47:37;16.55;;;7.55;;
14847;SDS011;7516;43.570;1.448;2023-07-31T02:50:07;18.00;;;9.30;;
14847;SDS011;7516;43.570;1.448;2023-07-31T02:52:34;24.38;;;11.77;;
14847;SDS011;7516;43.570;1.448;2023-07-31T02:55:02;23.08;;;12.32;;
14847;SDS011;7516;43.570;1.448;2023-07-31T02:57:30;17.27;;;11.25;;
14847;SDS011;7516;43.570;1.448;2023-07-31T02:59:57;17.08;;;9.80;;
14847;SDS011;7516;43.570;1.448;2023-07-31T03:02:25;16.23;;;10.07;;
14847;SDS011;7516;43.570;1.448;2023-07-31T03:04:52;16.25;;;9.48;;
14847;SDS011;7516;43.570;1.448;2023-07-31T03:07:21;16.75;;;9.82;;
14847;SDS011;7516;43.570;1.448;2023-07-31T03:09:49;15.30;;;9.20;;
14847;SDS011;7516;43.570;1.448;2023-07-31T03:12:16;17.40;;;10.32;;
14847;SDS011;7516;43.570;1.448;2023-07-31T03:14:44;12.52;;;9.27;;
14847;SDS011;7516;43.570;1.448;2023-07-31T03:17:12;18.75;;;10.57;;
14847;SDS011;7516;43.570;1.448;2023-07-31T03:19:39;17.77;;;9.75;;
14847;SDS011;7516;43.570;1.448;2023-07-31T03:22:07;15.18;;;9.25;;
14847;SDS011;7516;43.570;1.448;2023-07-31T03:24:36;17.88;;;10.70;;
14847;SDS011;7516;43.570;1.448;2023-07-31T03:27:03;16.45;;;10.05;;
14847;SDS011;7516;43.570;1.448;2023-07-31T03:29:31;18.08;;;10.27;;
14847;SDS011;7516;43.570;1.448;2023-07-31T03:31:59;16.88;;;10.25;;
14847;SDS011;7516;43.570;1.448;2023-07-31T03:34:26;15.30;;;9.75;;
14847;SDS011;7516;43.570;1.448;2023-07-31T03:36:54;16.45;;;10.35;;
14847;SDS011;7516;43.570;1.448;2023-07-31T03:39:21;13.43;;;9.55;;
14847;SDS011;7516;43.570;1.448;2023-07-31T03:41:50;14.43;;;9.93;;
14847;SDS011;7516;43.570;1.448;2023-07-31T03:44:18;14.68;;;9.80;;
14847;SDS011;7516;43.570;1.448;2023-07-31T03:46:45;14.40;;;10.13;;
14847;SDS011;7516;43.570;1.448;2023-07-31T03:49:13;14.07;;;9.77;;
14847;SDS011;7516;43.570;1.448;2023-07-31T03:51:40;14.95;;;10.70;;
14847;SDS011;7516;43.570;1.448;2023-07-31T03:54:08;16.35;;;10.43;;
14847;SDS011;7516;43.570;1.448;2023-07-31T03:56:35;16.02;;;10.75;;
14847;SDS011;7516;43.570;1.448;2023-07-31T03:59:05;14.48;;;9.65;;
14847;SDS011;7516;43.570;1.448;2023-07-31T04:01:32;11.98;;;9.05;;
14847;SDS011;7516;43.570;1.448;2023-07-31T04:04:00;13.73;;;8.95;;
14847;SDS011;7516;43.570;1.448;2023-07-31T04:06:27;17.35;;;8.73;;
14847;SDS011;7516;43.570;1.448;2023-07-31T04:08:54;13.50;;;8.48;;
14847;SDS011;7516;43.570;1.448;2023-07-31T04:11:22;13.38;;;7.47;;
14847;SDS011;7516;43.570;1.448;2023-07-31T04:13:49;11.20;;;6.80;;
14847;SDS011;7516;43.570;1.448;2023-07-31T04:16:18;10.10;;;7.47;;
14847;SDS011;7516;43.570;1.448;2023-07-31T04:18:46;11.05;;;6.95;;
14847;SDS011;7516;43.570;1.448;2023-07-31T04:21:13;10.18;;;6.85;;
14847;SDS011;7516;43.570;1.448;2023-07-31T04:23:40;12.07;;;6.50;;
14847;SDS011;7516;43.570;1.448;2023-07-31T04:26:08;10.50;;;6.47;;
14847;SDS011;7516;43.570;1.448;2023-07-31T04:28:35;10.50;;;5.78;;
14847;SDS011;7516;43.570;1.448;2023-07-31T04:31:03;9.07;;;5.55;;
14847;SDS011;7516;43.570;1.448;2023-07-31T04:33:32;9.00;;;5.47;;
14847;SDS011;7516;43.570;1.448;2023-07-31T04:35:59;7.80;;;4.68;;
14847;SDS011;7516;43.570;1.448;2023-07-31T04:38:27;6.78;;;4.72;;
14847;SDS011;7516;43.570;1.448;2023-07-31T04:40:54;8.45;;;4.75;;
14847;SDS011;7516;43.570;1.448;2023-07-31T04:43:22;9.90;;;4.97;;
14847;SDS011;7516;43.570;1.448;2023-07-31T04:45:49;8.13;;;4.18;;
14847;SDS011;7516;43.570;1.448;2023-07-31T04:48:19;7.28;;;4.72;;
14847;SDS011;7516;43.570;1.448;2023-07-31T04:50:47;7.70;;;4.30;;
14847;SDS011;7516;43.570;1.448;2023-07-31T04:53:15;6.93;;;4.45;;
14847;SDS011;7516;43.570;1.448;2023-07-31T04:55:42;7.30;;;3.90;;
14847;SDS011;7516;43.570;1.448;2023-07-31T04:58:10;9.02;;;4.47;;
14847;SDS011;7516;43.570;1.448;2023-07-31T05:00:36;8.82;;;4.47;;
14847;SDS011;7516;43.570;1.448;2023-07-31T05:03:04;6.00;;;3.90;;
14847;SDS011;7516;43.570;1.448;2023-07-31T05:05:31;9.65;;;3.80;;
14847;SDS011;7516;43.570;1.448;2023-07-31T05:08:00;5.35;;;3.72;;
14847;SDS011;7516;43.570;1.448;2023-07-31T05:10:28;6.03;;;3.38;;
14847;SDS011;7516;43.570;1.448;2023-07-31T05:12:56;7.72;;;3.95;;
14847;SDS011;7516;43.570;1.448;2023-07-31T05:15:23;6.43;;;3.63;;
14847;SDS011;7516;43.570;1.448;2023-07-31T05:17:51;6.00;;;3.75;;
14847;SDS011;7516;43.570;1.448;2023-07-31T05:20:18;6.72;;;3.10;;
14847;SDS011;7516;43.570;1.448;2023-07-31T05:22:46;7.10;;;3.50;;
14847;SDS011;7516;43.570;1.448;2023-07-31T05:25:15;6.72;;;3.40;;
14847;SDS011;7516;43.570;1.448;2023-07-31T05:27:43;8.05;;;3.22;;
14847;SDS011;7516;43.570;1.448;2023-07-31T05:30:10;9.13;;;3.05;;
14847;SDS011;7516;43.570;1.448;2023-07-31T05:32:38;6.50;;;3.28;;
14847;SDS011;7516;43.570;1.448;2023-07-31T05:35:06;6.30;;;3.25;;
14847;SDS011;7516;43.570;1.448;2023-07-31T05:37:34;10.15;;;3.22;;
14847;SDS011;7516;43.570;1.448;2023-07-31T05:40:01;6.72;;;3.33;;
14847;SDS011;7516;43.570;1.448;2023-07-31T05:42:31;6.93;;;3.00;;
14847;SDS011;7516;43.570;1.448;2023-07-31T05:44:59;8.40;;;3.40;;
14847;SDS011;7516;43.570;1.448;2023-07-31T05:47:27;5.10;;;3.00;;
14847;SDS011;7516;43.570;1.448;2023-07-31T05:49:54;5.68;;;3.42;;
14847;SDS011;7516;43.570;1.448;2023-07-31T05:52:22;8.10;;;3.33;;
14847;SDS011;7516;43.570;1.448;2023-07-31T05:54:49;7.50;;;3.25;;
14847;SDS011;7516;43.570;1.448;2023-07-31T05:57:17;7.05;;;3.13;;
14847;SDS011;7516;43.570;1.448;2023-07-31T05:59:46;8.30;;;3.60;;
14847;SDS011;7516;43.570;1.448;2023-07-31T06:02:13;6.80;;;3.28;;
14847;SDS011;7516;43.570;1.448;2023-07-31T06:04:41;7.85;;;3.35;;
14847;SDS011;7516;43.570;1.448;2023-07-31T06:07:08;5.53;;;2.88;;
14847;SDS011;7516;43.570;1.448;2023-07-31T06:09:36;10.13;;;3.35;;
14847;SDS011;7516;43.570;1.448;2023-07-31T06:12:04;5.63;;;3.05;;
14847;SDS011;7516;43.570;1.448;2023-07-31T06:14:32;8.05;;;3.60;;
14847;SDS011;7516;43.570;1.448;2023-07-31T06:17:01;5.60;;;3.13;;
14847;SDS011;7516;43.570;1.448;2023-07-31T06:19:28;6.55;;;3.22;;
14847;SDS011;7516;43.570;1.448;2023-07-31T06:21:56;6.68;;;3.20;;
14847;SDS011;7516;43.570;1.448;2023-07-31T06:24:23;5.55;;;2.97;;
14847;SDS011;7516;43.570;1.448;2023-07-31T06:26:51;8.68;;;3.25;;
14847;SDS011;7516;43.570;1.448;2023-07-31T06:29:18;5.70;;;3.20;;
14847;SDS011;7516;43.570;1.448;2023-07-31T06:31:46;5.88;;;3.00;;
14847;SDS011;7516;43.570;1.448;2023-07-31T06:34:14;7.20;;;2.80;;
14847;SDS011;7516;43.570;1.448;2023-07-31T06:36:42;7.15;;;3.17;;
14847;SDS011;7516;43.570;1.448;2023-07-31T06:39:09;5.95;;;2.67;;
14847;SDS011;7516;43.570;1.448;2023-07-31T06:41:37;4.82;;;2.80;;
14847;SDS011;7516;43.570;1.448;2023-07-31T06:44:05;9.15;;;3.33;;
14847;SDS011;7516;43.570;1.448;2023-07-31T06:46:32;8.15;;;3.33;;
14847;SDS011;7516;43.570;1.448;2023-07-31T06:49:00;9.90;;;2.92;;
14847;SDS011;7516;43.570;1.448;2023-07-31T06:51:29;7.05;;;3.15;;
14847;SDS011;7516;43.570;1.448;2023-07-31T06:53:57;9.48;;;3.78;;
14847;SDS011;7516;43.570;1.448;2023-07-31T06:56:24;7.15;;;3.33;;
14847;SDS011;7516;43.570;1.448;2023-07-31T06:58:52;7.00;;;2.92;;
14847;SDS011;7516;43.570;1.448;2023-07-31T07:01:20;7.93;;;3.00;;
14847;SDS011;7516;43.570;1.448;2023-07-31T07:03:47;6.35;;;3.00;;
14847;SDS011;7516;43.570;1.448;2023-07-31T07:06:15;8.13;;;3.22;;
14847;SDS011;7516;43.570;1.448;2023-07-31T07:08:44;8.73;;;2.80;;
14847;SDS011;7516;43.570;1.448;2023-07-31T07:11:12;7.57;;;3.20;;
14847;SDS011;7516;43.570;1.448;2023-07-31T07:13:39;5.03;;;2.88;;
14847;SDS011;7516;43.570;1.448;2023-07-31T07:16:07;9.93;;;3.38;;
14847;SDS011;7516;43.570;1.448;2023-07-31T07:18:35;6.72;;;2.95;;
14847;SDS011;7516;43.570;1.448;2023-07-31T07:21:03;7.30;;;2.90;;
14847;SDS011;7516;43.570;1.448;2023-07-31T07:23:30;7.78;;;3.55;;
14847;SDS011;7516;43.570;1.448;2023-07-31T07:25:59;6.95;;;3.20;;
14847;SDS011;7516;43.570;1.448;2023-07-31T07:28:27;10.02;;;3.20;;
14847;SDS011;7516;43.570;1.448;2023-07-31T07:30:55;7.15;;;3.08;;
14847;SDS011;7516;43.570;1.448;2023-07-31T07:33:23;9.40;;;2.83;;
14847;SDS011;7516;43.570;1.448;2023-07-31T07:35:50;8.65;;;3.63;;
14847;SDS011;7516;43.570;1.448;2023-07-31T07:38:18;10.27;;;3.28;;
14847;SDS011;7516;43.570;1.448;2023-07-31T07:40:45;5.60;;;2.92;;
14847;SDS011;7516;43.570;1.448;2023-07-31T07:43:16;7.13;;;3.13;;
14847;SDS011;7516;43.570;1.448;2023-07-31T07:45:44;6.80;;;2.90;;
14847;SDS011;7516;43.570;1.448;2023-07-31T07:48:11;6.13;;;2.95;;
14847;SDS011;7516;43.570;1.448;2023-07-31T07:50:39;7.70;;;3.28;;
14847;SDS011;7516;43.570;1.448;2023-07-31T07:53:07;7.18;;;3.05;;
14847;SDS011;7516;43.570;1.448;2023-07-31T07:55:35;5.68;;;3.05;;
14847;SDS011;7516;43.570;1.448;2023-07-31T07:58:02;7.50;;;3.20;;
14847;SDS011;7516;43.570;1.448;2023-07-31T08:00:31;9.82;;;3.50;;
14847;SDS011;7516;43.570;1.448;2023-07-31T08:02:59;6.55;;;3.08;;
14847;SDS011;7516;43.570;1.448;2023-07-31T08:05:26;5.53;;;2.65;;
14847;SDS011;7516;43.570;1.448;2023-07-31T08:07:54;7.88;;;2.75;;
14847;SDS011;7516;43.570;1.448;2023-07-31T08:10:22;7.57;;;3.20;;
14847;SDS011;7516;43.570;1.448;2023-07-31T08:12:49;8.57;;;3.30;;
14847;SDS011;7516;43.570;1.448;2023-07-31T08:15:17;7.53;;;3.13;;
14847;SDS011;7516;43.570;1.448;2023-07-31T08:17:45;6.93;;;3.13;;
14847;SDS011;7516;43.570;1.448;2023-07-31T08:20:13;7.50;;;3.00;;
14847;SDS011;7516;43.570;1.448;2023-07-31T08:22:41;8.30;;;3.08;;
14847;SDS011;7516;43.570;1.448;2023-07-31T08:25:08;9.55;;;3.15;;
14847;SDS011;7516;43.570;1.448;2023-07-31T08:27:35;6.55;;;2.65;;
14847;SDS011;7516;43.570;1.448;2023-07-31T08:30:03;9.20;;;3.03;;
14847;SDS011;7516;43.570;1.448;2023-07-31T08:32:31;7.95;;;3.05;;
14847;SDS011;7516;43.570;1.448;2023-07-31T08:35:00;6.50;;;2.92;;
14847;SDS011;7516;43.570;1.448;2023-07-31T08:37:28;7.18;;;3.20;;
14847;SDS011;7516;43.570;1.448;2023-07-31T08:39:55;8.45;;;3.25;;
14847;SDS011;7516;43.570;1.448;2023-07-31T08:42:23;7.75;;;3.28;;
14847;SDS011;7516;43.570;1.448;2023-07-31T08:44:51;5.80;;;2.88;;
14847;SDS011;7516;43.570;1.448;2023-07-31T08:47:19;7.55;;;2.88;;
14847;SDS011;7516;43.570;1.448;2023-07-31T08:49:48;6.93;;;3.25;;
14847;SDS011;7516;43.570;1.448;2023-07-31T08:52:19;8.18;;;2.90;;
14847;SDS011;7516;43.570;1.448;2023-07-31T08:54:46;5.68;;;2.30;;
14847;SDS011;7516;43.570;1.448;2023-07-31T08:57:13;6.97;;;2.85;;
14847;SDS011;7516;43.570;1.448;2023-07-31T08:59:43;3.92;;;2.05;;
14847;SDS011;7516;43.570;1.448;2023-07-31T09:02:11;6.78;;;2.70;;
14847;SDS011;7516;43.570;1.448;2023-07-31T09:04:41;6.70;;;2.63;;
14847;SDS011;7516;43.570;1.448;2023-07-31T09:07:09;7.65;;;2.85;;
14847;SDS011;7516;43.570;1.448;2023-07-31T09:09:39;7.30;;;2.80;;
14847;SDS011;7516;43.570;1.448;2023-07-31T09:12:07;6.95;;;2.50;;
14847;SDS011;7516;43.570;1.448;2023-07-31T09:14:34;8.95;;;2.50;;
14847;SDS011;7516;43.570;1.448;2023-07-31T09:17:03;6.40;;;2.50;;
14847;SDS011;7516;43.570;1.448;2023-07-31T09:19:32;5.15;;;2.30;;
14847;SDS011;7516;43.570;1.448;2023-07-31T09:22:02;4.40;;;2.30;;
14847;SDS011;7516;43.570;1.448;2023-07-31T09:24:31;6.47;;;2.50;;
14847;SDS011;7516;43.570;1.448;2023-07-31T09:27:01;4.15;;;2.03;;
14847;SDS011;7516;43.570;1.448;2023-07-31T09:29:28;6.97;;;2.28;;
14847;SDS011;7516;43.570;1.448;2023-07-31T09:31:56;5.10;;;2.40;;
14847;SDS011;7516;43.570;1.448;2023-07-31T09:34:28;6.55;;;2.75;;
14847;SDS011;7516;43.570;1.448;2023-07-31T09:36:57;3.40;;;1.83;;
14847;SDS011;7516;43.570;1.448;2023-07-31T09:39:27;4.88;;;2.08;;
14847;SDS011;7516;43.570;1.448;2023-07-31T09:41:57;5.05;;;1.85;;
14847;SDS011;7516;43.570;1.448;2023-07-31T09:44:38;3.20;;;1.80;;
14847;SDS011;7516;43.570;1.448;2023-07-31T09:47:06;4.22;;;2.20;;
14847;SDS011;7516;43.570;1.448;2023-07-31T09:49:46;4.60;;;2.22;;
14847;SDS011;7516;43.570;1.448;2023-07-31T09:52:14;4.43;;;1.90;;
14847;SDS011;7516;43.570;1.448;2023-07-31T09:54:41;3.58;;;2.00;;
14847;SDS011;7516;43.570;1.448;2023-07-31T09:57:09;6.13;;;2.42;;
14847;SDS011;7516;43.570;1.448;2023-07-31T09:59:39;4.63;;;2.25;;
14847;SDS011;7516;43.570;1.448;2023-07-31T10:02:07;4.63;;;2.00;;
14847;SDS011;7516;43.570;1.448;2023-07-31T10:04:41;5.13;;;2.25;;
14847;SDS011;7516;43.570;1.448;2023-07-31T10:07:10;4.18;;;1.80;;
14847;SDS011;7516;43.570;1.448;2023-07-31T10:09:38;4.00;;;2.15;;
14847;SDS011;7516;43.570;1.448;2023-07-31T10:12:06;7.45;;;2.20;;
14847;SDS011;7516;43.570;1.448;2023-07-31T10:14:39;3.65;;;1.67;;
14847;SDS011;7516;43.570;1.448;2023-07-31T10:17:08;3.38;;;1.98;;
14847;SDS011;7516;43.570;1.448;2023-07-31T10:19:37;6.40;;;2.10;;
14847;SDS011;7516;43.570;1.448;2023-07-31T10:22:06;3.95;;;2.03;;
14847;SDS011;7516;43.570;1.448;2023-07-31T10:24:34;4.75;;;2.30;;
14847;SDS011;7516;43.570;1.448;2023-07-31T10:27:03;4.10;;;2.20;;
14847;SDS011;7516;43.570;1.448;2023-07-31T10:29:31;4.65;;;2.28;;
14847;SDS011;7516;43.570;1.448;2023-07-31T10:32:00;4.47;;;1.83;;
14847;SDS011;7516;43.570;1.448;2023-07-31T10:34:31;4.32;;;2.00;;
14847;SDS011;7516;43.570;1.448;2023-07-31T10:39:46;3.30;;;2.00;;
14847;SDS011;7516;43.570;1.448;2023-07-31T10:42:32;4.53;;;2.17;;
14847;SDS011;7516;43.570;1.448;2023-07-31T10:45:01;4.70;;;1.95;;
14847;SDS011;7516;43.570;1.448;2023-07-31T10:47:32;5.75;;;2.30;;
14847;SDS011;7516;43.570;1.448;2023-07-31T10:50:11;5.82;;;2.63;;
14847;SDS011;7516;43.570;1.448;2023-07-31T10:52:49;3.97;;;2.22;;
14847;SDS011;7516;43.570;1.448;2023-07-31T10:55:28;4.15;;;1.85;;
14847;SDS011;7516;43.570;1.448;2023-07-31T10:57:57;5.18;;;2.15;;
14847;SDS011;7516;43.570;1.448;2023-07-31T11:00:32;5.35;;;1.88;;
14847;SDS011;7516;43.570;1.448;2023-07-31T11:03:05;3.42;;;1.90;;
14847;SDS011;7516;43.570;1.448;2023-07-31T11:05:41;4.05;;;2.30;;
14847;SDS011;7516;43.570;1.448;2023-07-31T11:08:11;2.88;;;1.90;;
14847;SDS011;7516;43.570;1.448;2023-07-31T11:10:39;3.88;;;2.15;;
14847;SDS011;7516;43.570;1.448;2023-07-31T11:13:08;5.10;;;2.00;;
14847;SDS011;7516;43.570;1.448;2023-07-31T11:15:35;3.90;;;2.10;;
14847;SDS011;7516;43.570;1.448;2023-07-31T11:18:04;5.15;;;2.08;;
14847;SDS011;7516;43.570;1.448;2023-07-31T11:20:33;4.45;;;2.50;;
14847;SDS011;7516;43.570;1.448;2023-07-31T11:23:03;3.50;;;2.00;;
14847;SDS011;7516;43.570;1.448;2023-07-31T11:25:33;3.92;;;2.17;;
14847;SDS011;7516;43.570;1.448;2023-07-31T11:28:04;3.85;;;1.90;;
14847;SDS011;7516;43.570;1.448;2023-07-31T11:30:32;6.00;;;2.10;;
14847;SDS011;7516;43.570;1.448;2023-07-31T11:33:01;4.55;;;2.10;;
14847;SDS011;7516;43.570;1.448;2023-07-31T11:35:31;3.20;;;2.08;;
14847;SDS011;7516;43.570;1.448;2023-07-31T11:37:59;3.80;;;2.22;;
14847;SDS011;7516;43.570;1.448;2023-07-31T11:40:27;6.43;;;2.33;;
14847;SDS011;7516;43.570;1.448;2023-07-31T11:42:56;3.85;;;1.95;;
14847;SDS011;7516;43.570;1.448;2023-07-31T11:45:27;3.75;;;1.83;;
14847;SDS011;7516;43.570;1.448;2023-07-31T11:47:55;3.53;;;2.03;;
14847;SDS011;7516;43.570;1.448;2023-07-31T11:50:23;3.45;;;1.95;;
14847;SDS011;7516;43.570;1.448;2023-07-31T11:52:54;5.15;;;2.17;;
14847;SDS011;7516;43.570;1.448;2023-07-31T11:55:25;5.15;;;2.13;;
14847;SDS011;7516;43.570;1.448;2023-07-31T11:57:54;3.63;;;2.40;;
14847;SDS011;7516;43.570;1.448;2023-07-31T12:00:23;3.45;;;2.17;;
14847;SDS011;7516;43.570;1.448;2023-07-31T12:02:52;3.97;;;2.17;;
14847;SDS011;7516;43.570;1.448;2023-07-31T12:05:20;5.53;;;2.47;;
14847;SDS011;7516;43.570;1.448;2023-07-31T12:07:50;3.67;;;2.40;;
14847;SDS011;7516;43.570;1.448;2023-07-31T12:10:24;4.15;;;2.38;;
14847;SDS011;7516;43.570;1.448;2023-07-31T12:12:58;5.90;;;2.55;;
14847;SDS011;7516;43.570;1.448;2023-07-31T12:18:13;5.90;;;2.20;;
14847;SDS011;7516;43.570;1.448;2023-07-31T12:20:42;5.88;;;2.35;;
14847;SDS011;7516;43.570;1.448;2023-07-31T12:23:16;4.75;;;2.30;;
14847;SDS011;7516;43.570;1.448;2023-07-31T12:25:54;4.45;;;2.25;;
14847;SDS011;7516;43.570;1.448;2023-07-31T12:28:27;4.88;;;2.60;;
14847;SDS011;7516;43.570;1.448;2023-07-31T12:30:56;5.40;;;2.40;;
14847;SDS011;7516;43.570;1.448;2023-07-31T12:33:29;5.55;;;2.20;;
14847;SDS011;7516;43.570;1.448;2023-07-31T12:36:00;3.60;;;2.08;;
14847;SDS011;7516;43.570;1.448;2023-07-31T12:38:30;4.38;;;2.55;;
14847;SDS011;7516;43.570;1.448;2023-07-31T12:40:57;4.75;;;2.40;;
14847;SDS011;7516;43.570;1.448;2023-07-31T12:43:25;3.80;;;2.20;;
14847;SDS011;7516;43.570;1.448;2023-07-31T12:45:53;4.45;;;2.10;;
14847;SDS011;7516;43.570;1.448;2023-07-31T12:48:21;4.45;;;2.30;;
14847;SDS011;7516;43.570;1.448;2023-07-31T12:50:49;4.20;;;2.60;;
14847;SDS011;7516;43.570;1.448;2023-07-31T12:53:16;4.18;;;2.30;;
14847;SDS011;7516;43.570;1.448;2023-07-31T12:55:45;3.88;;;2.20;;
14847;SDS011;7516;43.570;1.448;2023-07-31T12:58:13;2.63;;;1.98;;
14847;SDS011;7516;43.570;1.448;2023-07-31T13:00:40;5.68;;;2.60;;
14847;SDS011;7516;43.570;1.448;2023-07-31T13:03:08;3.90;;;2.50;;
14847;SDS011;7516;43.570;1.448;2023-07-31T13:05:36;4.97;;;2.40;;
14847;SDS011;7516;43.570;1.448;2023-07-31T13:08:04;4.38;;;2.63;;
14847;SDS011;7516;43.570;1.448;2023-07-31T13:10:32;4.35;;;2.60;;
14847;SDS011;7516;43.570;1.448;2023-07-31T13:13:01;5.03;;;2.17;;
14847;SDS011;7516;43.570;1.448;2023-07-31T13:15:28;5.50;;;2.20;;
14847;SDS011;7516;43.570;1.448;2023-07-31T13:17:56;4.55;;;2.60;;
14847;SDS011;7516;43.570;1.448;2023-07-31T13:20:24;4.72;;;2.40;;
14847;SDS011;7516;43.570;1.448;2023-07-31T13:22:52;5.30;;;2.75;;
14847;SDS011;7516;43.570;1.448;2023-07-31T13:25:19;4.93;;;2.55;;
14847;SDS011;7516;43.570;1.448;2023-07-31T13:27:47;4.53;;;2.40;;
14847;SDS011;7516;43.570;1.448;2023-07-31T13:30:16;4.10;;;2.33;;
14847;SDS011;7516;43.570;1.448;2023-07-31T13:32:43;4.93;;;2.33;;
14847;SDS011;7516;43.570;1.448;2023-07-31T13:35:10;3.70;;;2.20;;
14847;SDS011;7516;43.570;1.448;2023-07-31T13:37:38;2.65;;;2.00;;
14847;SDS011;7516;43.570;1.448;2023-07-31T13:40:06;3.97;;;2.60;;
14847;SDS011;7516;43.570;1.448;2023-07-31T13:42:34;2.85;;;2.30;;
14847;SDS011;7516;43.570;1.448;2023-07-31T13:45:02;4.28;;;2.47;;
14847;SDS011;7516;43.570;1.448;2023-07-31T13:47:32;4.03;;;2.45;;
14847;SDS011;7516;43.570;1.448;2023-07-31T13:50:02;7.80;;;2.90;;
14847;SDS011;7516;43.570;1.448;2023-07-31T13:52:30;5.45;;;2.40;;
14847;SDS011;7516;43.570;1.448;2023-07-31T13:54:57;5.25;;;2.50;;
14847;SDS011;7516;43.570;1.448;2023-07-31T13:57:25;3.75;;;2.65;;
14847;SDS011;7516;43.570;1.448;2023-07-31T13:59:53;3.45;;;2.28;;
14847;SDS011;7516;43.570;1.448;2023-07-31T14:02:20;6.93;;;2.17;;
14847;SDS011;7516;43.570;1.448;2023-07-31T14:04:49;5.97;;;2.65;;
14847;SDS011;7516;43.570;1.448;2023-07-31T14:07:17;3.63;;;2.90;;
14847;SDS011;7516;43.570;1.448;2023-07-31T14:09:44;3.72;;;2.10;;
14847;SDS011;7516;43.570;1.448;2023-07-31T14:12:12;6.00;;;2.50;;
14847;SDS011;7516;43.570;1.448;2023-07-31T14:14:39;5.63;;;2.78;;
14847;SDS011;7516;43.570;1.448;2023-07-31T14:17:07;4.72;;;2.47;;
14847;SDS011;7516;43.570;1.448;2023-07-31T14:19:35;5.55;;;2.50;;
14847;SDS011;7516;43.570;1.448;2023-07-31T14:22:04;5.63;;;2.88;;
14847;SDS011;7516;43.570;1.448;2023-07-31T14:24:31;4.65;;;2.80;;
14847;SDS011;7516;43.570;1.448;2023-07-31T14:26:59;5.10;;;2.90;;
14847;SDS011;7516;43.570;1.448;2023-07-31T14:29:27;5.55;;;2.88;;
14847;SDS011;7516;43.570;1.448;2023-07-31T14:31:54;5.82;;;3.10;;
14847;SDS011;7516;43.570;1.448;2023-07-31T14:34:21;6.57;;;3.17;;
14847;SDS011;7516;43.570;1.448;2023-07-31T14:36:49;6.65;;;3.25;;
14847;SDS011;7516;43.570;1.448;2023-07-31T14:39:18;4.85;;;3.05;;
14847;SDS011;7516;43.570;1.448;2023-07-31T14:41:45;4.53;;;2.92;;
14847;SDS011;7516;43.570;1.448;2023-07-31T14:44:13;5.68;;;3.20;;
14847;SDS011;7516;43.570;1.448;2023-07-31T14:46:40;4.72;;;3.10;;
14847;SDS011;7516;43.570;1.448;2023-07-31T14:49:08;7.78;;;3.95;;
14847;SDS011;7516;43.570;1.448;2023-07-31T14:51:35;4.55;;;2.92;;
14847;SDS011;7516;43.570;1.448;2023-07-31T14:54:03;5.55;;;3.03;;
14847;SDS011;7516;43.570;1.448;2023-07-31T14:56:32;5.63;;;3.60;;
14847;SDS011;7516;43.570;1.448;2023-07-31T14:58:59;4.80;;;2.88;;
14847;SDS011;7516;43.570;1.448;2023-07-31T15:01:27;4.50;;;3.00;;
14847;SDS011;7516;43.570;1.448;2023-07-31T15:03:55;4.50;;;2.88;;
14847;SDS011;7516;43.570;1.448;2023-07-31T15:06:22;7.47;;;3.60;;
14847;SDS011;7516;43.570;1.448;2023-07-31T15:08:50;4.32;;;3.20;;
14847;SDS011;7516;43.570;1.448;2023-07-31T15:11:17;4.57;;;2.97;;
14847;SDS011;7516;43.570;1.448;2023-07-31T15:13:46;5.95;;;3.13;;